Hauptseite
METAR-TAF:

METAR-TAF

Flughäfen :

Flughafen Mauritius

Mauritius, Mauritius

Breite: 20-26S, Länge: 057-40E, Höhe: 55 m

Beobachtung

Neuester Wetterbericht von vor 17 Minuten, um 04:00 UTC
Wind 5 kt aus Nord/Nordwest
Temperatur 20°C
Luftfeuchtigkeit 88%
Luftdruck 1019 hPa
Sichtweite 10 km oder mehr
Aufgelockert bewölkt in der Höhe von 1700 ft

METAR: FIMP 230400Z 33005KT 9999 SCT017 20/18 Q1019

Zeit: 08:17 (04:17 UTC)

Prognose

Neuester Wetterbericht von vor 4 Stunden und 47 Minuten, um 23:30 UTC
Gültige Prognose vom 23 um 00 UTC bis 24 um 06 UTC
Wind 8 kt aus Südost
Sichtweite 10 km oder mehr
Aufgelockert bewölkt in der Höhe von 1800 ft
Zeitweise
vom 23 um 14 UTC bis 23 um 21 UTC
Sichtweite: 7000 m
Aufgelockert bewölkt in der Höhe von 1500 ft
Durchbrochene Bewölkung in der Höhe von 5000 ft
Regenschauer

TAF: FIMP 222330Z 2300/2406 14008KT 9999 SCT018 TEMPO 2314/2321 7000 -SHRA SCT015 BKN050

Wetterbeobachtungen und Prognosen von mehr als 4000 Flughäfen (METAR und TAF Bericht).

Die verfügbaren Stationen werden durch gelbe und rote Markierungen auf der Karte dargestellt.

Führen Sie die Maus auf sie, um den Namen der Station zu sehen.

Darauf klicken, um die Beobachtung von Wetterbeobachtungen und Prognosen zu sehen.

Um die Karte zu ändern : klicken Sie auf den grünen Tasten mit einem schwarzen Kreuz Zum Vergrößern, auf den grünen Button mit einem Gedankenstrich zu verkleinern, oder auf die grünen Pfeile für benachbarte Karten.


METAR-TAF: